West Liberty, West Virginia
Current Conditions -  °F | °C
As of 9:53 PM on Wednesday 24 Dec 2014 (Local Time) from KHLG Reporting Station
Light Rain Light Rain  
Wind Chill: 35°   Ceiling: 2500
Heat Index: 44°   Visibility: 10mi
Dew Point: 39°   Wind: 22mph
Humidity: 82%   Direction: 250°WSW
Pressure: 29.57"   Gusts: 35mph
Location:  40.17°N, 80.59°W
Report Text: KHLG 250253Z AUTO 25019G30KT 10SM -RA FEW017 BKN025 OVC075 07/04 A2957 RMK AO2 PK WND 24042/0215 SLP016 P0002 60007 T00670039 51025
Loading
Personal Weather Stations






























Interactive Weather Map New forecast layout! Learn more

10-Day Weather Forecast

Advertisements
Track Severe Weather on mobile